sensor_id;sensor_type;location;lat;lon;timestamp;temperature;humidity
44069;DHT22;29738;51.234;5.484;2023-11-19T04:03:06;12.80;99.90
44069;DHT22;29738;51.234;5.484;2023-11-19T04:05:31;12.80;99.90
44069;DHT22;29738;51.234;5.484;2023-11-19T04:07:57;12.90;99.90
44069;DHT22;29738;51.234;5.484;2023-11-19T04:10:32;13.00;99.90
44069;DHT22;29738;51.234;5.484;2023-11-19T04:12:58;13.00;99.90
44069;DHT22;29738;51.234;5.484;2023-11-19T04:15:23;12.80;99.90
44069;DHT22;29738;51.234;5.484;2023-11-19T04:17:49;13.00;99.90
44069;DHT22;29738;51.234;5.484;2023-11-19T04:20:15;13.00;99.90
44069;DHT22;29738;51.234;5.484;2023-11-19T04:22:41;13.00;99.90
44069;DHT22;29738;51.234;5.484;2023-11-19T04:25:06;13.00;99.90
44069;DHT22;29738;51.234;5.484;2023-11-19T04:27:32;13.00;99.90
44069;DHT22;29738;51.234;5.484;2023-11-19T04:29:58;13.00;99.90
44069;DHT22;29738;51.234;5.484;2023-11-19T04:32:23;13.00;99.90
44069;DHT22;29738;51.234;5.484;2023-11-19T04:34:51;13.00;99.90
44069;DHT22;29738;51.234;5.484;2023-11-19T04:37:17;13.10;99.90
44069;DHT22;29738;51.234;5.484;2023-11-19T04:39:46;13.10;99.90
44069;DHT22;29738;51.234;5.484;2023-11-19T04:42:11;13.10;99.90
44069;DHT22;29738;51.234;5.484;2023-11-19T04:44:37;13.10;99.90
44069;DHT22;29738;51.234;5.484;2023-11-19T04:47:03;13.00;99.90
44069;DHT22;29738;51.234;5.484;2023-11-19T04:49:29;12.90;99.90
44069;DHT22;29738;51.234;5.484;2023-11-19T04:51:55;13.00;99.90
44069;DHT22;29738;51.234;5.484;2023-11-19T04:54:21;13.00;99.90
44069;DHT22;29738;51.234;5.484;2023-11-19T04:56:47;12.90;99.90
44069;DHT22;29738;51.234;5.484;2023-11-19T04:59:13;13.00;99.90
44069;DHT22;29738;51.234;5.484;2023-11-19T05:01:38;12.90;99.90
44069;DHT22;29738;51.234;5.484;2023-11-19T05:04:05;13.00;99.90
44069;DHT22;29738;51.234;5.484;2023-11-19T05:06:32;13.00;99.90
44069;DHT22;29738;51.234;5.484;2023-11-19T05:08:58;12.90;99.90
44069;DHT22;29738;51.234;5.484;2023-11-19T05:11:26;12.80;99.90
44069;DHT22;29738;51.234;5.484;2023-11-19T05:13:56;12.90;99.90
44069;DHT22;29738;51.234;5.484;2023-11-19T05:16:22;12.60;99.90
44069;DHT22;29738;51.234;5.484;2023-11-19T05:18:50;12.60;99.90
44069;DHT22;29738;51.234;5.484;2023-11-19T05:21:18;12.60;99.90
44069;DHT22;29738;51.234;5.484;2023-11-19T05:23:45;12.70;99.90
44069;DHT22;29738;51.234;5.484;2023-11-19T05:26:23;12.50;99.90
44069;DHT22;29738;51.234;5.484;2023-11-19T05:28:49;12.30;99.90
44069;DHT22;29738;51.234;5.484;2023-11-19T05:31:17;12.40;99.90
44069;DHT22;29738;51.234;5.484;2023-11-19T05:33:48;12.40;99.90
44069;DHT22;29738;51.234;5.484;2023-11-19T05:36:14;12.40;99.90
44069;DHT22;29738;51.234;5.484;2023-11-19T05:38:43;12.40;99.90
44069;DHT22;29738;51.234;5.484;2023-11-19T05:41:11;12.40;99.90
44069;DHT22;29738;51.234;5.484;2023-11-19T05:43:37;12.40;99.90
44069;DHT22;29738;51.234;5.484;2023-11-19T05:46:05;12.30;99.90
44069;DHT22;29738;51.234;5.484;2023-11-19T05:48:58;12.50;99.90
44069;DHT22;29738;51.234;5.484;2023-11-19T05:51:29;12.40;99.90
44069;DHT22;29738;51.234;5.484;2023-11-19T05:53:54;12.40;99.90
44069;DHT22;29738;51.234;5.484;2023-11-19T05:56:29;12.20;99.90
44069;DHT22;29738;51.234;5.484;2023-11-19T05:58:58;12.20;99.90
44069;DHT22;29738;51.234;5.484;2023-11-19T07:27:13;11.80;99.90
44069;DHT22;29738;51.234;5.484;2023-11-19T07:37:25;11.90;99.90
44069;DHT22;29738;51.234;5.484;2023-11-19T07:39:51;11.90;99.90
44069;DHT22;29738;51.234;5.484;2023-11-19T08:48:25;12.50;99.90
44069;DHT22;29738;51.234;5.484;2023-11-19T09:14:10;12.70;99.90
44069;DHT22;29738;51.234;5.484;2023-11-19T09:29:34;13.00;99.90
44069;DHT22;29738;51.234;5.484;2023-11-19T09:32:00;13.00;99.90
44069;DHT22;29738;51.234;5.484;2023-11-19T09:34:26;13.10;99.90
44069;DHT22;29738;51.234;5.484;2023-11-19T09:36:53;13.10;99.90
44069;DHT22;29738;51.234;5.484;2023-11-19T09:39:18;13.20;99.90
44069;DHT22;29738;51.234;5.484;2023-11-19T10:37:03;13.60;99.90
44069;DHT22;29738;51.234;5.484;2023-11-19T10:39:54;13.50;99.90
44069;DHT22;29738;51.234;5.484;2023-11-19T10:52:38;13.70;99.90
44069;DHT22;29738;51.234;5.484;2023-11-19T10:57:49;13.60;99.90
44069;DHT22;29738;51.234;5.484;2023-11-19T11:00:21;13.50;99.90
44069;DHT22;29738;51.234;5.484;2023-11-19T11:02:49;13.80;99.90
44069;DHT22;29738;51.234;5.484;2023-11-19T11:05:20;13.90;99.90
44069;DHT22;29738;51.234;5.484;2023-11-19T11:07:50;14.00;99.90
44069;DHT22;29738;51.234;5.484;2023-11-19T11:10:25;13.80;99.90
44069;DHT22;29738;51.234;5.484;2023-11-19T11:12:53;13.90;99.90
44069;DHT22;29738;51.234;5.484;2023-11-19T11:36:24;13.50;99.90
44069;DHT22;29738;51.234;5.484;2023-11-19T12:44:58;13.70;99.90
44069;DHT22;29738;51.234;5.484;2023-11-19T12:47:26;13.70;99.90
44069;DHT22;29738;51.234;5.484;2023-11-19T12:49:59;13.80;99.90
44069;DHT22;29738;51.234;5.484;2023-11-19T12:52:24;13.70;99.90
44069;DHT22;29738;51.234;5.484;2023-11-19T12:54:50;13.70;99.90
44069;DHT22;29738;51.234;5.484;2023-11-19T12:57:19;13.60;99.90
44069;DHT22;29738;51.234;5.484;2023-11-19T12:59:55;13.60;99.90
44069;DHT22;29738;51.234;5.484;2023-11-19T13:02:23;13.50;99.90
44069;DHT22;29738;51.234;5.484;2023-11-19T13:07:47;13.40;99.90
44069;DHT22;29738;51.234;5.484;2023-11-19T13:10:12;13.40;99.90
44069;DHT22;29738;51.234;5.484;2023-11-19T13:12:38;13.30;99.90
44069;DHT22;29738;51.234;5.484;2023-11-19T13:15:04;12.90;99.90
44069;DHT22;29738;51.234;5.484;2023-11-19T13:17:59;13.10;99.90
44069;DHT22;29738;51.234;5.484;2023-11-19T13:20:26;13.00;99.90
44069;DHT22;29738;51.234;5.484;2023-11-19T13:22:55;13.00;99.90
44069;DHT22;29738;51.234;5.484;2023-11-19T13:25:24;12.90;99.90
44069;DHT22;29738;51.234;5.484;2023-11-19T13:27:54;12.70;99.90
44069;DHT22;29738;51.234;5.484;2023-11-19T13:33:02;12.60;99.90
44069;DHT22;29738;51.234;5.484;2023-11-19T13:35:30;12.50;99.90
44069;DHT22;29738;51.234;5.484;2023-11-19T13:37:56;12.40;99.90
44069;DHT22;29738;51.234;5.484;2023-11-19T13:40:22;12.40;99.90
44069;DHT22;29738;51.234;5.484;2023-11-19T13:42:49;12.60;99.90
44069;DHT22;29738;51.234;5.484;2023-11-19T13:45:18;12.40;99.90
44069;DHT22;29738;51.234;5.484;2023-11-19T13:47:47;12.30;99.90
44069;DHT22;29738;51.234;5.484;2023-11-19T13:50:19;12.30;99.90
44069;DHT22;29738;51.234;5.484;2023-11-19T14:18:39;12.50;99.90
44069;DHT22;29738;51.234;5.484;2023-11-19T14:21:05;12.30;99.90
44069;DHT22;29738;51.234;5.484;2023-11-19T14:23:30;12.40;99.90
44069;DHT22;29738;51.234;5.484;2023-11-19T14:25:56;12.40;99.90
44069;DHT22;29738;51.234;5.484;2023-11-19T14:28:28;12.40;99.90
44069;DHT22;29738;51.234;5.484;2023-11-19T14:30:54;12.50;99.90
44069;DHT22;29738;51.234;5.484;2023-11-19T14:33:22;12.50;99.90
44069;DHT22;29738;51.234;5.484;2023-11-19T14:35:51;12.40;99.90
44069;DHT22;29738;51.234;5.484;2023-11-19T14:38:17;12.60;99.90
44069;DHT22;29738;51.234;5.484;2023-11-19T14:40:43;12.60;99.90
44069;DHT22;29738;51.234;5.484;2023-11-19T14:43:09;12.60;99.90
44069;DHT22;29738;51.234;5.484;2023-11-19T14:45:37;12.50;99.90
44069;DHT22;29738;51.234;5.484;2023-11-19T14:48:02;12.50;99.90
44069;DHT22;29738;51.234;5.484;2023-11-19T14:50:28;12.60;99.90
44069;DHT22;29738;51.234;5.484;2023-11-19T14:52:54;12.80;99.90
44069;DHT22;29738;51.234;5.484;2023-11-19T14:55:20;12.70;99.90
44069;DHT22;29738;51.234;5.484;2023-11-19T14:57:45;12.70;99.90
44069;DHT22;29738;51.234;5.484;2023-11-19T15:00:11;12.70;99.90
44069;DHT22;29738;51.234;5.484;2023-11-19T15:02:40;12.90;99.90
44069;DHT22;29738;51.234;5.484;2023-11-19T15:05:07;12.70;99.90
44069;DHT22;29738;51.234;5.484;2023-11-19T15:07:35;12.60;99.90
44069;DHT22;29738;51.234;5.484;2023-11-19T15:10:02;12.50;99.90
44069;DHT22;29738;51.234;5.484;2023-11-19T15:12:28;12.40;99.90
44069;DHT22;29738;51.234;5.484;2023-11-19T15:14:57;12.50;99.90
44069;DHT22;29738;51.234;5.484;2023-11-19T15:29:11;12.40;99.90
44069;DHT22;29738;51.234;5.484;2023-11-19T15:31:37;12.40;99.90
44069;DHT22;29738;51.234;5.484;2023-11-19T15:41:56;12.00;99.90
44069;DHT22;29738;51.234;5.484;2023-11-19T16:23:15;12.10;99.90
44069;DHT22;29738;51.234;5.484;2023-11-19T16:25:43;12.20;99.90
44069;DHT22;29738;51.234;5.484;2023-11-19T16:28:09;12.20;99.90
44069;DHT22;29738;51.234;5.484;2023-11-19T16:30:35;12.30;99.90
44069;DHT22;29738;51.234;5.484;2023-11-19T16:33:03;12.40;99.90
44069;DHT22;29738;51.234;5.484;2023-11-19T16:35:29;12.10;99.90
44069;DHT22;29738;51.234;5.484;2023-11-19T16:46:02;12.20;99.90
44069;DHT22;29738;51.234;5.484;2023-11-19T16:56:16;12.00;99.90
44069;DHT22;29738;51.234;5.484;2023-11-19T16:58:48;12.00;99.90
44069;DHT22;29738;51.234;5.484;2023-11-19T18:42:57;11.60;99.90
44069;DHT22;29738;51.234;5.484;2023-11-19T19:02:04;11.60;99.90
44069;DHT22;29738;51.234;5.484;2023-11-19T19:04:29;11.50;99.90
44069;DHT22;29738;51.234;5.484;2023-11-19T19:06:55;11.60;99.90
44069;DHT22;29738;51.234;5.484;2023-11-19T19:09:24;11.60;99.90
44069;DHT22;29738;51.234;5.484;2023-11-19T19:11:50;11.60;99.90
44069;DHT22;29738;51.234;5.484;2023-11-19T19:14:16;11.60;99.90
44069;DHT22;29738;51.234;5.484;2023-11-19T19:21:52;11.60;99.90
44069;DHT22;29738;51.234;5.484;2023-11-19T19:24:20;11.60;99.90
44069;DHT22;29738;51.234;5.484;2023-11-19T19:26:49;11.60;99.90
44069;DHT22;29738;51.234;5.484;2023-11-19T19:29:21;11.60;99.90
44069;DHT22;29738;51.234;5.484;2023-11-19T19:32:21;11.70;99.90
44069;DHT22;29738;51.234;5.484;2023-11-19T19:34:48;11.60;99.90
44069;DHT22;29738;51.234;5.484;2023-11-19T19:50:11;11.50;99.90
44069;DHT22;29738;51.234;5.484;2023-11-19T20:13:19;11.70;99.90
44069;DHT22;29738;51.234;5.484;2023-11-19T20:21:43;11.60;99.90
44069;DHT22;29738;51.234;5.484;2023-11-19T21:21:06;11.70;99.90
44069;DHT22;29738;51.234;5.484;2023-11-19T21:26:07;11.80;99.90
44069;DHT22;29738;51.234;5.484;2023-11-19T21:28:35;11.90;99.90
44069;DHT22;29738;51.234;5.484;2023-11-19T21:31:01;11.80;99.90
44069;DHT22;29738;51.234;5.484;2023-11-19T21:33:27;11.80;99.90
44069;DHT22;29738;51.234;5.484;2023-11-19T21:35:53;11.80;99.90
44069;DHT22;29738;51.234;5.484;2023-11-19T21:38:21;11.90;99.90
44069;DHT22;29738;51.234;5.484;2023-11-19T21:40:50;11.90;99.90
44069;DHT22;29738;51.234;5.484;2023-11-19T21:43:16;11.90;99.90
44069;DHT22;29738;51.234;5.484;2023-11-19T21:45:45;11.80;99.90
44069;DHT22;29738;51.234;5.484;2023-11-19T21:48:13;11.80;99.90
44069;DHT22;29738;51.234;5.484;2023-11-19T21:50:41;12.00;99.90
44069;DHT22;29738;51.234;5.484;2023-11-19T21:53:07;11.90;99.90
44069;DHT22;29738;51.234;5.484;2023-11-19T21:55:33;11.90;99.90
44069;DHT22;29738;51.234;5.484;2023-11-19T21:57:59;11.90;99.90
44069;DHT22;29738;51.234;5.484;2023-11-19T22:00:24;11.90;99.90
44069;DHT22;29738;51.234;5.484;2023-11-19T22:02:51;11.90;99.90
44069;DHT22;29738;51.234;5.484;2023-11-19T22:05:17;11.90;99.90
44069;DHT22;29738;51.234;5.484;2023-11-19T22:07:45;11.90;99.90
44069;DHT22;29738;51.234;5.484;2023-11-19T22:10:11;11.80;99.90
44069;DHT22;29738;51.234;5.484;2023-11-19T22:12:36;11.80;99.90
44069;DHT22;29738;51.234;5.484;2023-11-19T22:15:02;11.80;99.90
44069;DHT22;29738;51.234;5.484;2023-11-19T22:17:28;11.90;99.90
44069;DHT22;29738;51.234;5.484;2023-11-19T22:19:53;11.90;99.90
44069;DHT22;29738;51.234;5.484;2023-11-19T22:22:19;12.00;99.90
44069;DHT22;29738;51.234;5.484;2023-11-19T22:24:45;11.90;99.90
44069;DHT22;29738;51.234;5.484;2023-11-19T22:27:10;11.90;99.90
44069;DHT22;29738;51.234;5.484;2023-11-19T22:29:36;11.80;99.90
44069;DHT22;29738;51.234;5.484;2023-11-19T22:32:02;11.90;99.90
44069;DHT22;29738;51.234;5.484;2023-11-19T22:34:27;11.90;99.90
44069;DHT22;29738;51.234;5.484;2023-11-19T22:36:56;12.00;99.90
44069;DHT22;29738;51.234;5.484;2023-11-19T22:39:21;12.00;99.90
44069;DHT22;29738;51.234;5.484;2023-11-19T22:41:47;11.90;99.90
44069;DHT22;29738;51.234;5.484;2023-11-19T22:44:14;11.90;99.90
44069;DHT22;29738;51.234;5.484;2023-11-19T22:46:39;11.90;99.90
44069;DHT22;29738;51.234;5.484;2023-11-19T22:49:07;11.90;99.90
44069;DHT22;29738;51.234;5.484;2023-11-19T22:51:33;11.90;99.90
44069;DHT22;29738;51.234;5.484;2023-11-19T22:53:59;12.00;99.90
44069;DHT22;29738;51.234;5.484;2023-11-19T22:56:24;12.00;99.90
44069;DHT22;29738;51.234;5.484;2023-11-19T22:58:50;12.00;99.90
44069;DHT22;29738;51.234;5.484;2023-11-19T23:01:16;12.00;99.90
44069;DHT22;29738;51.234;5.484;2023-11-19T23:03:42;12.00;99.90
44069;DHT22;29738;51.234;5.484;2023-11-19T23:06:09;12.00;99.90
44069;DHT22;29738;51.234;5.484;2023-11-19T23:08:34;12.10;99.90
44069;DHT22;29738;51.234;5.484;2023-11-19T23:11:01;12.10;99.90
44069;DHT22;29738;51.234;5.484;2023-11-19T23:13:27;12.10;99.90
44069;DHT22;29738;51.234;5.484;2023-11-19T23:15:53;12.10;99.90
44069;DHT22;29738;51.234;5.484;2023-11-19T23:18:19;12.10;99.90
44069;DHT22;29738;51.234;5.484;2023-11-19T23:20:44;12.00;99.90
44069;DHT22;29738;51.234;5.484;2023-11-19T23:23:10;12.00;99.90
44069;DHT22;29738;51.234;5.484;2023-11-19T23:25:36;12.30;99.90
44069;DHT22;29738;51.234;5.484;2023-11-19T23:28:01;12.10;99.90
44069;DHT22;29738;51.234;5.484;2023-11-19T23:30:27;12.10;99.90
44069;DHT22;29738;51.234;5.484;2023-11-19T23:32:53;12.00;99.90
44069;DHT22;29738;51.234;5.484;2023-11-19T23:35:18;12.10;99.90
44069;DHT22;29738;51.234;5.484;2023-11-19T23:37:44;12.00;99.90
44069;DHT22;29738;51.234;5.484;2023-11-19T23:40:10;12.20;99.90
44069;DHT22;29738;51.234;5.484;2023-11-19T23:42:36;12.10;99.90
44069;DHT22;29738;51.234;5.484;2023-11-19T23:45:01;12.10;99.90
44069;DHT22;29738;51.234;5.484;2023-11-19T23:47:27;12.10;99.90
44069;DHT22;29738;51.234;5.484;2023-11-19T23:49:53;12.10;99.90
44069;DHT22;29738;51.234;5.484;2023-11-19T23:52:19;12.10;99.90
44069;DHT22;29738;51.234;5.484;2023-11-19T23:54:44;12.00;99.90
44069;DHT22;29738;51.234;5.484;2023-11-19T23:57:10;12.10;99.90
44069;DHT22;29738;51.234;5.484;2023-11-19T23:59:48;12.10;99.90
